Time;durP1;ratioP1;P1;durP2;ratioP2;P2;SDS_P1;SDS_P2;PMS_P1;PMS_P2;Temp;Humidity;BMP_temperature;BMP_pressure;BME280_temperature;BME280_humidity;BME280_pressure;Samples;Min_cycle;Max_cycle;Signal;HPM_P1;HPM_P2
2022/12/19 00:02:07;;;;;;;9.98;9.48;;;;;;;-2.77;100.00;103275.25;5015523;28;20048;-69
2022/12/19 00:04:33;;;;;;;10.45;9.95;;;;;;;-2.55;100.00;103286.19;5017137;28;20021;-69
2022/12/19 00:06:58;;;;;;;11.05;10.45;;;;;;;-2.69;100.00;103288.97;5011846;28;20040;-68
2022/12/19 00:09:25;;;;;;;10.40;9.90;;;;;;;-2.64;100.00;103278.53;5015216;28;20067;-68
2022/12/19 00:11:50;;;;;;;9.77;9.27;;;;;;;-2.50;100.00;103281.75;5015445;28;20448;-67
2022/12/19 00:14:17;;;;;;;9.95;9.45;;;;;;;-2.48;100.00;103285.22;5014967;28;20025;-69
2022/12/19 00:16:43;;;;;;;10.10;9.60;;;;;;;-2.52;100.00;103278.34;5015096;28;20026;-69
2022/12/19 00:19:10;;;;;;;10.80;10.23;;;;;;;-2.53;100.00;103290.47;5016085;28;20477;-70
2022/12/19 00:21:35;;;;;;;10.63;10.10;;;;;;;-2.85;100.00;103274.50;5014581;28;20049;-69
2022/12/19 00:24:06;;;;;;;10.85;10.25;;;;;;;-2.74;100.00;103285.56;5013288;28;20064;-70
2022/12/19 00:26:34;;;;;;;10.27;9.77;;;;;;;-2.73;100.00;103299.44;5014653;28;20045;-70
2022/12/19 00:29:05;;;;;;;10.10;9.60;;;;;;;-2.72;100.00;103299.41;5014197;28;20419;-70
2022/12/19 00:31:34;;;;;;;10.23;9.73;;;;;;;-2.73;100.00;103289.91;5013179;28;20489;-70
2022/12/19 00:34:00;;;;;;;9.82;9.40;;;;;;;-2.73;100.00;103287.28;5014671;28;20041;-69
2022/12/19 00:36:28;;;;;;;10.25;9.75;;;;;;;-2.81;100.00;103286.53;5015276;28;20547;-68
2022/12/19 00:38:55;;;;;;;10.20;9.70;;;;;;;-2.77;100.00;103280.44;5014876;28;20489;-68
2022/12/19 00:41:24;;;;;;;10.05;9.55;;;;;;;-2.69;100.00;103295.91;5013893;28;20033;-69
2022/12/19 00:44:01;;;;;;;10.15;9.65;;;;;;;-2.61;100.00;103300.13;5015122;28;20026;-69
2022/12/19 00:46:28;;;;;;;9.98;9.48;;;;;;;-2.72;100.00;103302.00;5014970;28;20105;-70
2022/12/19 00:48:54;;;;;;;10.10;9.60;;;;;;;-2.54;100.00;103295.69;5013584;28;20080;-69
2022/12/19 00:51:22;;;;;;;10.52;10.02;;;;;;;-2.47;100.00;103294.72;5026576;28;20033;-69
2022/12/19 00:53:49;;;;;;;10.10;9.60;;;;;;;-2.62;100.00;103298.41;5014051;28;20050;-69
2022/12/19 00:56:18;;;;;;;9.88;9.38;;;;;;;-2.84;100.00;103289.19;5012583;28;20026;-70
2022/12/19 00:58:44;;;;;;;9.93;9.43;;;;;;;-2.86;100.00;103283.16;5029476;28;20022;-69
2022/12/19 01:01:18;;;;;;;10.43;9.93;;;;;;;-2.81;100.00;103296.94;5014590;28;20052;-71
2022/12/19 01:03:44;;;;;;;;;;;;;;;-2.65;100.00;103301.03;5014566;28;20100;-71
2022/12/19 01:06:09;;;;;;;9.80;9.38;;;;;;;-2.68;100.00;103298.50;5014166;28;19972;-69
2022/12/19 01:08:35;;;;;;;10.00;9.50;;;;;;;-2.63;100.00;103304.50;5013779;28;20485;-69
2022/12/19 01:11:01;;;;;;;9.93;9.43;;;;;;;-2.77;100.00;103306.41;5014396;28;20041;-70
2022/12/19 01:13:29;;;;;;;10.40;9.90;;;;;;;-2.95;100.00;103294.50;5012822;28;20548;-71
2022/12/19 01:15:55;;;;;;;10.32;9.82;;;;;;;-3.01;100.00;103286.84;5014064;28;20473;-68
2022/12/19 01:18:21;;;;;;;10.35;9.85;;;;;;;-2.89;100.00;103294.44;5011974;28;20044;-69
2022/12/19 01:20:46;;;;;;;10.27;9.77;;;;;;;-2.80;100.00;103298.66;5014249;28;20370;-69
2022/12/19 01:23:14;;;;;;;11.50;10.90;;;;;;;-2.88;100.00;103301.34;5013778;28;20578;-68
2022/12/19 01:25:40;;;;;;;10.15;9.65;;;;;;;-2.99;100.00;103287.66;5010357;28;20029;-68
2022/12/19 01:28:07;;;;;;;9.93;9.52;;;;;;;-3.07;100.00;103267.00;5012761;28;20493;-68
2022/12/19 01:30:33;;;;;;;10.52;10.02;;;;;;;-3.12;100.00;103281.75;5011610;28;20080;-69
2022/12/19 01:32:59;;;;;;;10.55;10.05;;;;;;;-3.15;100.00;103280.94;5013495;28;20026;-68
2022/12/19 01:35:25;;;;;;;10.82;10.30;;;;;;;-2.96;100.00;103281.56;5013177;28;20034;-69
2022/12/19 01:37:52;;;;;;;10.15;9.65;;;;;;;-3.09;100.00;103262.66;5014251;28;20404;-69
2022/12/19 01:40:18;;;;;;;10.20;9.70;;;;;;;-3.25;100.00;103279.31;5014487;28;20022;-70
2022/12/19 01:42:44;;;;;;;10.48;9.98;;;;;;;-3.00;100.00;103292.88;5013078;28;20104;-68
2022/12/19 01:45:10;;;;;;;10.30;9.80;;;;;;;-3.15;100.00;103287.00;5012724;28;20101;-70
2022/12/19 01:47:42;;;;;;;10.50;10.00;;;;;;;-3.07;100.00;103285.16;5013696;28;20049;-69
2022/12/19 01:50:13;;;;;;;10.77;10.27;;;;;;;-3.07;100.00;103282.56;5012107;28;20045;-68
2022/12/19 01:52:39;;;;;;;10.65;10.13;;;;;;;-3.03;100.00;103279.91;5011916;28;20077;-69
2022/12/19 01:55:05;;;;;;;10.20;9.70;;;;;;;-3.22;100.00;103289.69;5013194;28;20029;-69
2022/12/19 01:57:31;;;;;;;10.85;10.25;;;;;;;-3.11;100.00;103288.66;5013148;28;20022;-69
2022/12/19 01:59:59;;;;;;;10.48;9.98;;;;;;;-3.10;100.00;103287.78;5013065;28;20485;-68
2022/12/19 02:02:31;;;;;;;10.65;10.07;;;;;;;-3.10;100.00;103287.78;5027232;28;20034;-70
2022/12/19 02:04:57;;;;;;;10.40;9.90;;;;;;;-3.07;100.00;103289.50;5011065;28;20022;-68
2022/12/19 02:07:25;;;;;;;10.43;9.93;;;;;;;-3.06;100.00;103293.81;5013278;28;20018;-69
2022/12/19 02:09:55;;;;;;;10.15;9.65;;;;;;;-3.12;100.00;103289.53;5010762;28;20021;-69
2022/12/19 02:12:26;;;;;;;10.10;9.60;;;;;;;-3.21;100.00;103281.03;5011165;28;20513;-70
2022/12/19 02:14:53;;;;;;;10.35;9.85;;;;;;;-3.18;100.00;103292.22;5014269;28;20037;-69
2022/12/19 02:17:22;;;;;;;10.65;10.15;;;;;;;-3.28;100.00;103277.63;5012773;28;20022;-69
2022/12/19 02:20:16;;;;;;;10.52;10.02;;;;;;;-3.39;100.00;103274.28;5014182;28;20125;-70
2022/12/19 02:23:00;;;;;;;;;;;;;;;-3.43;100.00;103281.28;5004787;28;20520;-69
2022/12/19 02:25:59;;;;;;;10.98;10.38;;;;;;;-3.47;100.00;103278.72;5012999;28;19913;-68
2022/12/19 02:29:03;;;;;;;10.63;10.13;;;;;;;-3.56;100.00;103273.63;5012009;28;20099;-67
2022/12/19 02:31:56;;;;;;;10.80;10.30;;;;;;;-3.62;100.00;103266.75;5011769;28;20135;-68
2022/12/19 02:34:33;;;;;;;11.10;10.50;;;;;;;-3.66;100.00;103278.06;5011083;28;20030;-68
2022/12/19 02:37:04;;;;;;;10.43;9.93;;;;;;;-3.74;100.00;103275.56;5012465;28;20018;-70
2022/12/19 02:40:11;;;;;;;11.45;10.85;;;;;;;-3.60;100.00;103293.53;5012707;28;20032;-71
2022/12/19 02:42:45;;;;;;;10.25;9.75;;;;;;;-3.75;100.00;103297.16;4990377;28;20038;-70
2022/12/19 02:45:13;;;;;;;11.63;11.02;;;;;;;-3.59;100.00;103304.81;5009221;28;20094;-72
2022/12/19 02:47:40;;;;;;;10.20;9.70;;;;;;;-3.70;100.00;103291.94;5012486;28;20548;-70
2022/12/19 02:50:07;;;;;;;10.95;10.35;;;;;;;-3.68;100.00;103297.94;5010871;28;20022;-69
2022/12/19 02:52:33;;;;;;;10.40;9.90;;;;;;;-3.65;100.00;103300.53;5009816;28;20700;-69
2022/12/19 02:55:03;;;;;;;10.45;9.95;;;;;;;-3.78;100.00;103294.59;5010806;28;20033;-69
2022/12/19 02:58:01;;;;;;;11.55;10.95;;;;;;;-3.81;100.00;103297.22;5009046;28;20053;-69
2022/12/19 03:00:28;;;;;;;10.70;10.20;;;;;;;-3.81;100.00;103286.00;5010216;28;20034;-69
2022/12/19 03:03:02;;;;;;;10.77;10.27;;;;;;;-3.78;100.00;103293.75;5012223;28;20041;-69
2022/12/19 03:05:56;;;;;;;11.25;10.65;;;;;;;-3.94;100.00;103293.03;5011413;28;20481;-69
2022/12/19 03:08:33;;;;;;;11.95;11.25;;;;;;;-3.87;100.00;103293.84;5007874;28;20029;-69
2022/12/19 03:11:06;;;;;;;11.07;10.52;;;;;;;-3.93;100.00;103294.75;5025904;28;20026;-68
2022/12/19 03:13:41;;;;;;;11.05;10.55;;;;;;;-3.96;100.00;103298.22;5011408;28;20072;-68
2022/12/19 03:16:09;;;;;;;11.18;10.65;;;;;;;-4.11;100.00;103295.78;5011394;28;20030;-68
2022/12/19 03:18:35;;;;;;;10.90;10.40;;;;;;;-4.17;100.00;103286.31;5010298;28;20030;-66
2022/12/19 03:21:30;;;;;;;11.07;10.57;;;;;;;-4.19;100.00;103292.34;5012066;28;20029;-68
2022/12/19 03:23:57;;;;;;;11.48;10.90;;;;;;;-4.13;100.00;103302.69;5010276;28;20038;-69
2022/12/19 03:26:27;;;;;;;11.43;10.82;;;;;;;-4.20;100.00;103306.19;5010649;28;20388;-68
2022/12/19 03:29:13;;;;;;;11.07;10.57;;;;;;;-4.20;100.00;103311.38;5009793;28;20024;-69
2022/12/19 03:31:41;;;;;;;11.10;10.60;;;;;;;-4.14;100.00;103315.66;5011633;28;20113;-69
2022/12/19 03:34:17;;;;;;;11.57;10.98;;;;;;;-4.27;100.00;103309.69;5009824;28;20025;-69
2022/12/19 03:36:48;;;;;;;11.10;10.60;;;;;;;-4.33;100.00;103315.81;5011017;28;20037;-69
2022/12/19 03:39:16;;;;;;;11.32;10.80;;;;;;;-4.32;100.00;103324.44;5011282;28;20030;-70
2022/12/19 03:44:34;;;;;;;11.27;10.68;;;;;;;-4.27;100.00;103325.25;5009758;28;20037;-69
2022/12/19 03:47:24;;;;;;;11.63;11.05;;;;;;;-4.24;100.00;103336.47;5009643;28;20057;-69
2022/12/19 03:49:49;;;;;;;10.98;10.48;;;;;;;-4.32;100.00;103337.41;5007215;28;20042;-69
2022/12/19 03:52:38;;;;;;;11.68;11.07;;;;;;;-4.29;100.00;103337.38;5009131;28;20095;-69
2022/12/19 03:55:14;;;;;;;11.25;10.70;;;;;;;-4.39;100.00;103333.13;5010464;28;20084;-69
2022/12/19 03:57:44;;;;;;;11.45;10.93;;;;;;;-4.35;100.00;103338.25;5011139;28;20033;-69
2022/12/19 04:00:13;;;;;;;11.70;11.10;;;;;;;-4.30;100.00;103339.09;5037425;28;20069;-69
2022/12/19 04:02:44;;;;;;;10.90;10.40;;;;;;;-4.29;100.00;103332.19;5010167;28;20034;-69
2022/12/19 04:05:14;;;;;;;11.55;10.95;;;;;;;-4.34;100.00;103359.84;5011438;28;20289;-69
2022/12/19 04:07:41;;;;;;;11.05;10.55;;;;;;;-4.25;100.00;103365.00;5009280;28;20057;-69
2022/12/19 04:10:11;;;;;;;11.85;11.25;;;;;;;-4.27;100.00;103371.91;5010097;28;20026;-69
2022/12/19 04:12:41;;;;;;;11.18;10.57;;;;;;;-4.20;100.00;103360.63;5011483;28;20440;-68
2022/12/19 04:15:08;;;;;;;10.70;10.20;;;;;;;-4.28;100.00;103355.50;5011317;28;20048;-69
2022/12/19 04:17:45;;;;;;;11.18;10.57;;;;;;;-4.36;100.00;103359.00;5011468;28;20515;-69
2022/12/19 04:20:17;;;;;;;11.90;11.30;;;;;;;-4.28;100.00;103354.63;5011196;28;20026;-69
2022/12/19 04:22:55;;;;;;;10.93;10.43;;;;;;;-4.36;100.00;103359.88;5010158;28;20022;-69
2022/12/19 04:25:53;;;;;;;11.70;11.10;;;;;;;-4.23;100.00;103371.03;5012120;28;20484;-69
2022/12/19 04:28:26;;;;;;;11.43;10.85;;;;;;;-4.35;100.00;103353.81;5030110;28;20025;-69
2022/12/19 04:30:53;;;;;;;11.50;10.90;;;;;;;-4.41;100.00;103352.97;5013387;28;20029;-69
2022/12/19 04:33:19;;;;;;;12.30;11.60;;;;;;;-4.34;100.00;103373.66;5015232;28;20083;-69
2022/12/19 04:35:44;;;;;;;11.88;11.30;;;;;;;-4.52;100.00;103346.16;5014065;28;20034;-69
2022/12/19 04:38:10;;;;;;;10.75;10.25;;;;;;;-4.54;100.00;103354.81;5014520;28;20034;-68
2022/12/19 04:40:35;;;;;;;11.57;10.98;;;;;;;-4.43;100.00;103375.47;5012274;28;20096;-68
2022/12/19 04:43:01;;;;;;;11.20;10.68;;;;;;;-4.53;100.00;103375.50;5009194;28;20485;-69
2022/12/19 04:45:26;;;;;;;11.55;10.95;;;;;;;-4.38;100.00;103387.53;5013250;28;20025;-68
2022/12/19 04:47:52;;;;;;;11.30;10.70;;;;;;;-4.31;100.00;103378.84;5015078;28;20096;-68
2022/12/19 04:50:17;;;;;;;11.10;10.60;;;;;;;-4.33;100.00;103371.94;5011745;28;20030;-70
2022/12/19 04:52:43;;;;;;;11.30;10.77;;;;;;;-4.50;100.00;103370.31;5012770;28;20042;-69
2022/12/19 04:55:09;;;;;;;11.10;10.55;;;;;;;-4.45;100.00;103383.25;5014041;28;20053;-70
2022/12/19 04:57:34;;;;;;;11.52;11.00;;;;;;;-4.59;100.00;103369.50;5015582;28;20033;-69
2022/12/19 05:00:02;;;;;;;11.40;10.80;;;;;;;-4.41;100.00;103389.25;5013175;28;20041;-68
2022/12/19 05:02:28;;;;;;;11.77;11.18;;;;;;;-4.38;100.00;103391.84;5013264;28;20030;-68
2022/12/19 05:04:53;;;;;;;11.73;11.13;;;;;;;-4.51;100.00;103399.66;5016934;28;20084;-68
2022/12/19 05:07:19;;;;;;;11.82;11.23;;;;;;;-4.51;100.00;103404.84;5013806;28;20613;-68
2022/12/19 05:09:44;;;;;;;12.10;11.43;;;;;;;-4.67;100.00;103395.44;5011946;28;20404;-68
2022/12/19 05:12:10;;;;;;;11.48;10.88;;;;;;;-4.62;100.00;103401.47;5012176;28;20112;-69
2022/12/19 05:14:35;;;;;;;11.90;11.30;;;;;;;-4.76;100.00;103401.53;5012435;28;20034;-68
2022/12/19 05:17:01;;;;;;;11.82;11.23;;;;;;;-4.58;100.00;103400.56;5012243;28;20034;-66
2022/12/19 05:19:27;;;;;;;12.45;11.75;;;;;;;-4.65;100.00;103417.00;5013491;28;20033;-68
2022/12/19 05:21:52;;;;;;;12.10;11.43;;;;;;;-4.72;100.00;103428.25;5014412;28;20033;-67
2022/12/19 05:24:18;;;;;;;12.30;11.60;;;;;;;-4.76;100.00;103424.81;5013055;28;20105;-68
2022/12/19 05:26:43;;;;;;;11.63;11.02;;;;;;;-4.92;100.00;103420.56;5013364;28;20079;-69
2022/12/19 05:29:09;;;;;;;11.75;11.15;;;;;;;-4.73;100.00;103418.75;5013579;28;20487;-69
2022/12/19 05:31:34;;;;;;;12.60;11.90;;;;;;;-4.78;100.00;103412.72;5009123;28;20511;-68
2022/12/19 05:34:00;;;;;;;11.82;11.20;;;;;;;-4.64;100.00;103420.44;5009739;28;20397;-68
2022/12/19 05:36:25;;;;;;;12.00;11.35;;;;;;;-4.90;100.00;103425.75;5012313;28;20061;-68
2022/12/19 05:38:51;;;;;;;12.65;11.93;;;;;;;-5.01;100.00;103428.34;5011346;28;20033;-68
2022/12/19 05:41:18;;;;;;;12.93;12.15;;;;;;;-4.97;100.00;103427.47;5011854;28;20025;-68
2022/12/19 05:43:48;;;;;;;12.73;12.02;;;;;;;-5.11;100.00;103432.69;5012344;28;20401;-69
2022/12/19 05:46:13;;;;;;;13.65;12.85;;;;;;;-5.01;100.00;103443.88;5009588;28;20021;-69
2022/12/19 05:48:39;;;;;;;13.55;12.75;;;;;;;-4.95;100.00;103443.88;5009037;28;21453;-69
2022/12/19 05:51:04;;;;;;;12.60;11.90;;;;;;;-5.04;100.00;103439.56;5011479;28;20045;-69
2022/12/19 05:53:30;;;;;;;13.48;12.68;;;;;;;-5.06;100.00;103440.44;5010371;28;20281;-68
2022/12/19 05:56:04;;;;;;;13.95;13.10;;;;;;;-4.95;100.00;103437.81;5012501;28;20021;-68
2022/12/19 05:58:29;;;;;;;;;;;;;;;-5.09;100.00;103445.63;5009926;28;20074;-69
2022/12/19 06:01:01;;;;;;;11.98;11.38;;;;;;;-5.13;100.00;103443.91;5010994;28;19913;-69
2022/12/19 06:03:26;;;;;;;14.40;13.43;;;;;;;-5.13;100.00;103455.13;5010291;28;20029;-68
2022/12/19 06:05:52;;;;;;;11.77;11.18;;;;;;;-5.05;100.00;103453.38;5014789;28;20028;-68
2022/12/19 06:08:17;;;;;;;12.70;11.98;;;;;;;-4.80;100.00;103468.84;5010411;28;20029;-67
2022/12/19 06:10:44;;;;;;;11.63;11.02;;;;;;;-4.69;100.00;103467.13;5010166;28;20032;-67
2022/12/19 06:13:09;;;;;;;11.00;10.50;;;;;;;-4.80;100.00;103464.53;5008613;28;20040;-67
2022/12/19 06:15:35;;;;;;;11.20;10.65;;;;;;;-4.33;100.00;103467.81;5011994;28;20393;-67
2022/12/19 06:18:00;;;;;;;12.27;11.55;;;;;;;-4.04;100.00;103465.06;5013168;28;20392;-67
2022/12/19 06:20:26;;;;;;;10.77;10.20;;;;;;;-3.84;100.00;103470.16;5013519;28;20029;-69
2022/12/19 06:22:51;;;;;;;10.27;9.70;;;;;;;-3.44;100.00;103492.34;5013579;28;20033;-69
2022/12/19 06:25:17;;;;;;;9.45;8.98;;;;;;;-3.37;100.00;103475.00;5012850;28;20032;-69
2022/12/19 06:27:42;;;;;;;9.25;8.85;;;;;;;-2.93;100.00;103478.94;5009549;28;20049;-70
2022/12/19 06:30:08;;;;;;;9.10;8.70;;;;;;;-2.40;100.00;103478.31;5012776;28;20056;-68
2022/12/19 06:32:33;;;;;;;9.60;9.10;;;;;;;-2.08;100.00;103483.09;5012125;28;20026;-69
2022/12/19 06:34:59;;;;;;;8.82;8.40;;;;;;;-1.37;100.00;103489.88;5012238;28;20025;-69
2022/12/19 06:37:24;;;;;;;9.02;8.55;;;;;;;-0.04;100.00;103493.41;5012270;28;20045;-69
2022/12/19 06:39:50;;;;;;;9.30;8.80;;;;;;;1.10;100.00;103494.97;5012098;28;20030;-70
2022/12/19 06:42:24;;;;;;;8.50;8.10;;;;;;;1.99;100.00;103484.63;5011111;28;20068;-69
2022/12/19 06:44:51;;;;;;;8.38;7.97;;;;;;;3.10;100.00;103504.56;5012411;28;20022;-69
2022/12/19 06:47:17;;;;;;;9.48;8.98;;;;;;;3.03;100.00;103500.44;5008815;28;20057;-68
2022/12/19 06:49:43;;;;;;;8.95;8.55;;;;;;;3.63;100.00;103495.69;5010651;28;20024;-70
2022/12/19 06:52:08;;;;;;;9.25;8.77;;;;;;;3.58;100.00;103496.69;5010368;28;20041;-69
2022/12/19 06:54:33;;;;;;;10.00;9.50;;;;;;;4.88;100.00;103506.47;5011518;28;20041;-68
2022/12/19 06:57:00;;;;;;;9.13;8.73;;;;;;;5.16;96.20;103514.06;5011728;28;20030;-68
2022/12/19 06:59:25;;;;;;;9.02;8.63;;;;;;;5.74;93.59;103499.16;5011812;28;20133;-68
2022/12/19 07:02:04;;;;;;;8.70;8.30;;;;;;;5.84;88.30;103507.47;5009788;28;20411;-70
2022/12/19 07:04:35;;;;;;;9.70;9.20;;;;;;;5.46;80.57;103499.53;5013223;28;20317;-69
2022/12/19 07:07:01;;;;;;;9.18;8.77;;;;;;;5.49;80.76;103506.44;5009590;28;20477;-68
2022/12/19 07:09:28;;;;;;;8.75;8.35;;;;;;;7.15;71.26;103508.13;5011478;28;20030;-70
2022/12/19 07:11:53;;;;;;;9.10;8.70;;;;;;;7.33;64.76;103509.78;5011945;28;20365;-69
2022/12/19 07:14:19;;;;;;;9.90;9.40;;;;;;;7.35;64.03;103507.09;5011661;28;20084;-69
2022/12/19 07:16:45;;;;;;;9.30;8.90;;;;;;;7.31;63.39;103509.03;5011805;28;20025;-70
2022/12/19 07:19:11;;;;;;;9.75;9.25;;;;;;;8.14;58.14;103523.06;5011861;28;20041;-69
2022/12/19 07:21:37;;;;;;;9.18;8.77;;;;;;;7.57;56.34;103514.75;5011613;28;20096;-69
2022/12/19 07:24:04;;;;;;;9.73;9.25;;;;;;;8.62;54.79;103522.09;5009062;28;20021;-69
2022/12/19 07:26:30;;;;;;;10.00;9.50;;;;;;;8.86;51.69;103530.41;5011201;28;20026;-68
2022/12/19 07:28:57;;;;;;;10.15;9.65;;;;;;;8.78;51.67;103541.44;5011318;28;20070;-68
2022/12/19 07:31:22;;;;;;;10.85;10.35;;;;;;;8.31;51.44;103542.34;5005315;28;20706;-68
2022/12/19 07:33:48;;;;;;;9.52;9.13;;;;;;;8.86;51.58;103528.63;5009470;28;20482;-69
2022/12/19 07:36:13;;;;;;;10.07;9.57;;;;;;;9.08;49.18;103520.25;5010535;28;20523;-68
2022/12/19 07:38:38;;;;;;;10.60;10.10;;;;;;;8.20;50.50;103517.44;5009328;28;20456;-69
2022/12/19 07:41:04;;;;;;;10.52;10.02;;;;;;;9.03;50.31;103521.47;5009989;28;20513;-70
2022/12/19 07:43:30;;;;;;;10.35;9.85;;;;;;;8.37;49.37;103529.72;5024206;28;20034;-70
2022/12/19 07:45:55;;;;;;;10.20;9.70;;;;;;;9.07;48.48;103531.78;5008715;28;20113;-70
2022/12/19 07:48:22;;;;;;;11.95;11.35;;;;;;;9.09;49.50;103545.78;5000302;28;20103;-74
2022/12/19 07:50:48;;;;;;;10.35;9.85;;;;;;;9.14;48.36;103532.28;5008356;28;20034;-73
2022/12/19 07:53:14;;;;;;;10.77;10.27;;;;;;;9.23;48.26;103542.31;5008767;28;20041;-75
2022/12/19 07:55:40;;;;;;;10.20;9.70;;;;;;;8.00;50.17;103547.59;5027521;28;20026;-74
2022/12/19 07:58:05;;;;;;;9.77;9.38;;;;;;;8.95;49.29;103545.75;5009655;28;20536;-75
2022/12/19 08:00:31;;;;;;;10.32;9.82;;;;;;;7.00;52.35;103549.34;5013523;28;20032;-72
2022/12/19 08:02:59;;;;;;;10.60;10.10;;;;;;;6.49;63.16;103552.78;5015429;28;20037;-71
2022/12/19 08:05:25;;;;;;;10.57;10.07;;;;;;;7.41;56.40;103546.38;5014492;28;20033;-70
2022/12/19 08:07:53;;;;;;;11.32;10.75;;;;;;;6.13;56.18;103547.47;5013362;28;20029;-72
2022/12/19 08:10:21;;;;;;;10.95;10.45;;;;;;;6.31;64.04;103551.84;5014863;28;20030;-70
2022/12/19 08:12:47;;;;;;;10.15;9.65;;;;;;;5.10;58.59;103564.31;5014047;28;20036;-71
2022/12/19 08:15:13;;;;;;;10.60;10.10;;;;;;;5.58;64.02;103557.84;5011593;28;20314;-70
2022/12/19 08:17:39;;;;;;;10.98;10.40;;;;;;;6.69;59.97;103560.59;5012130;28;20556;-69
2022/12/19 08:20:06;;;;;;;10.07;9.57;;;;;;;5.92;58.43;103544.03;5013967;28;20117;-70
2022/12/19 08:22:31;;;;;;;10.38;9.88;;;;;;;7.41;54.01;103528.72;5014492;28;20492;-71
2022/12/19 08:24:57;;;;;;;10.63;10.13;;;;;;;6.65;58.03;103543.19;5013529;28;20030;-72
2022/12/19 08:27:22;;;;;;;10.52;10.02;;;;;;;7.46;54.43;103550.47;5016157;28;20048;-73
2022/12/19 08:29:48;;;;;;;10.10;9.60;;;;;;;8.60;49.67;103557.56;5016210;28;20034;-72
2022/12/19 08:32:15;;;;;;;9.60;9.18;;;;;;;8.99;49.60;103546.44;5046250;28;20033;-72
2022/12/19 08:34:40;;;;;;;9.30;8.90;;;;;;;7.60;48.91;103548.91;5013848;28;20471;-73
2022/12/19 08:37:07;;;;;;;9.50;9.10;;;;;;;8.09;50.05;103549.78;4997277;28;20129;-72
2022/12/19 08:39:32;;;;;;;9.57;9.18;;;;;;;9.38;46.76;103533.44;5013610;28;20045;-72
2022/12/19 08:41:58;;;;;;;9.82;9.35;;;;;;;8.92;47.39;103547.75;5013413;28;20440;-74
2022/12/19 08:44:23;;;;;;;9.68;9.27;;;;;;;8.45;46.03;103533.66;5016095;28;20449;-72
2022/12/19 08:46:49;;;;;;;9.95;9.45;;;;;;;7.02;48.50;103550.13;5014766;28;20046;-72
2022/12/19 08:49:14;;;;;;;9.32;8.93;;;;;;;8.51;48.30;103554.47;5013973;28;20032;-73
2022/12/19 08:51:40;;;;;;;10.65;10.15;;;;;;;8.92;47.73;103547.75;5012326;28;20030;-72
2022/12/19 08:54:05;;;;;;;10.05;9.55;;;;;;;7.90;47.44;103534.03;5014455;28;20133;-72
2022/12/19 08:56:31;;;;;;;10.18;9.68;;;;;;;6.97;51.14;103532.81;5015805;28;20469;-73
2022/12/19 08:58:57;;;;;;;10.73;10.23;;;;;;;8.04;49.37;103538.59;5015722;28;20032;-73
2022/12/19 09:01:22;;;;;;;10.15;9.65;;;;;;;9.01;47.37;103542.75;5015552;28;20052;-74
2022/12/19 09:03:48;;;;;;;9.70;9.30;;;;;;;8.54;47.68;103537.56;5013334;28;20022;-73
2022/12/19 09:06:15;;;;;;;9.80;9.40;;;;;;;8.67;47.73;103535.94;5014343;28;20029;-73
2022/12/19 09:08:42;;;;;;;10.10;9.60;;;;;;;8.45;48.51;103535.47;5013602;28;20421;-72
2022/12/19 09:11:12;;;;;;;10.15;9.65;;;;;;;6.51;49.35;103541.22;5008184;28;20041;-72
2022/12/19 09:13:40;;;;;;;9.90;9.50;;;;;;;6.58;50.29;103526.81;5012515;28;20029;-73
2022/12/19 09:16:16;;;;;;;9.93;9.50;;;;;;;8.28;50.33;103526.63;5009983;28;20396;-72
2022/12/19 09:18:43;;;;;;;10.30;9.80;;;;;;;8.69;48.36;103530.56;5014135;28;20160;-74
2022/12/19 09:21:09;;;;;;;9.35;8.95;;;;;;;7.93;47.42;103527.72;5010962;28;20481;-74
2022/12/19 09:23:35;;;;;;;10.50;10.00;;;;;;;6.04;52.56;103522.41;5010816;28;20037;-72
2022/12/19 09:26:04;;;;;;;9.90;9.40;;;;;;;4.84;60.72;103529.41;5014634;28;20473;-71
2022/12/19 09:28:30;;;;;;;10.88;10.38;;;;;;;3.06;78.50;103521.31;5012214;28;20097;-72
2022/12/19 09:31:03;;;;;;;11.43;10.82;;;;;;;3.79;78.80;103515.19;5010455;28;20489;-72
2022/12/19 09:33:31;;;;;;;10.95;10.43;;;;;;;2.87;85.47;103513.22;5011228;28;20172;-70
2022/12/19 09:35:57;;;;;;;10.73;10.23;;;;;;;2.07;93.23;103506.19;5010344;28;20040;-72
2022/12/19 09:38:24;;;;;;;11.68;11.07;;;;;;;2.49;92.18;103522.31;5007441;28;20038;-71
2022/12/19 09:40:55;;;;;;;11.60;11.00;;;;;;;1.37;94.73;103509.06;5005078;28;20049;-72
2022/12/19 09:43:52;;;;;;;11.52;10.93;;;;;;;1.94;96.17;103490.00;5011056;28;20030;-72
2022/12/19 09:46:24;;;;;;;10.77;10.27;;;;;;;1.46;100.00;103497.50;5011199;28;20080;-71
2022/12/19 09:48:55;;;;;;;11.25;10.65;;;;;;;1.74;100.00;103495.81;5003712;28;20057;-72
2022/12/19 09:51:39;;;;;;;11.70;11.10;;;;;;;0.46;100.00;103491.41;5028495;28;20084;-72
2022/12/19 09:54:34;;;;;;;;;;;;;;;0.49;100.00;103496.53;5010152;28;20070;-71
2022/12/19 09:57:04;;;;;;;11.27;10.68;;;;;;;0.09;100.00;103491.38;4995136;28;19918;-71
2022/12/19 09:59:36;;;;;;;10.90;10.32;;;;;;;1.24;100.00;103482.38;5037084;28;20037;-73
2022/12/19 10:02:18;;;;;;;11.18;10.57;;;;;;;-0.40;100.00;103477.63;5006059;28;20025;-72
2022/12/19 10:04:51;;;;;;;10.23;9.73;;;;;;;0.35;100.00;103475.09;5013017;28;20076;-71
2022/12/19 10:07:19;;;;;;;10.85;10.25;;;;;;;-0.38;100.00;103485.41;5010267;28;20025;-73
2022/12/19 10:09:44;;;;;;;11.00;10.40;;;;;;;-0.24;100.00;103485.13;5006715;28;20161;-72
2022/12/19 10:12:45;;;;;;;11.00;10.40;;;;;;;-0.49;100.00;103490.84;5025644;28;20129;-69
2022/12/19 10:15:46;;;;;;;11.23;10.55;;;;;;;0.62;100.00;103487.50;5005200;28;20037;-71
2022/12/19 10:18:12;;;;;;;11.40;10.70;;;;;;;0.55;100.00;103493.78;5009808;28;20037;-71
2022/12/19 10:20:45;;;;;;;11.15;10.55;;;;;;;-0.46;100.00;103488.19;5010481;28;20076;-70
2022/12/19 10:23:16;;;;;;;11.00;10.40;;;;;;;-0.61;100.00;103485.88;5005522;28;20026;-71
2022/12/19 10:26:03;;;;;;;13.43;12.50;;;;;;;-1.30;100.00;103481.94;5009278;28;20500;-69
2022/12/19 10:28:38;;;;;;;12.10;11.35;;;;;;;-1.62;100.00;103479.81;5008133;28;20026;-71
2022/12/19 10:31:17;;;;;;;12.45;11.65;;;;;;;-2.20;100.00;103475.47;5008763;28;20026;-69
2022/12/19 10:33:43;;;;;;;11.68;10.98;;;;;;;-0.89;100.00;103470.75;5010012;28;20405;-68
2022/12/19 10:36:10;;;;;;;11.10;10.50;;;;;;;-1.34;100.00;103474.19;5008848;28;20102;-70
2022/12/19 10:39:13;;;;;;;10.85;10.25;;;;;;;-1.07;100.00;103470.25;5006416;28;20113;-71
2022/12/19 10:41:43;;;;;;;11.02;10.43;;;;;;;-0.98;100.00;103450.09;5002335;28;20420;-69
2022/12/19 10:44:12;;;;;;;11.20;10.60;;;;;;;-1.59;100.00;103451.16;5007591;28;20026;-70
2022/12/19 10:46:46;;;;;;;11.90;11.20;;;;;;;-0.55;100.00;103464.91;5009970;28;20624;-70
2022/12/19 10:49:15;;;;;;;10.82;10.23;;;;;;;-0.58;100.00;103454.56;5006105;28;20038;-70
2022/12/19 10:52:02;;;;;;;11.75;11.05;;;;;;;-0.45;100.00;103456.00;4999183;28;20038;-73
2022/12/19 10:54:36;;;;;;;12.45;11.65;;;;;;;-1.04;100.00;103452.81;4996650;28;20056;-72
2022/12/19 10:57:20;;;;;;;11.38;10.73;;;;;;;-0.54;100.00;103450.97;5004294;28;20492;-71
2022/12/19 10:59:58;;;;;;;12.35;11.55;;;;;;;-1.11;100.00;103443.38;5006693;28;20030;-72
2022/12/19 11:02:33;;;;;;;10.98;10.38;;;;;;;-1.81;100.00;103444.56;5008667;28;20398;-74
2022/12/19 11:04:58;;;;;;;11.68;10.98;;;;;;;-1.19;100.00;103437.44;5006836;28;20056;-72
2022/12/19 11:07:24;;;;;;;11.95;11.23;;;;;;;-1.04;100.00;103434.56;5009030;28;20026;-71
2022/12/19 11:09:49;;;;;;;13.30;12.40;;;;;;;-0.98;100.00;103423.19;5004415;28;20177;-73
2022/12/19 11:12:17;;;;;;;11.00;10.40;;;;;;;-0.79;100.00;103436.72;5007855;28;20037;-73
2022/12/19 11:15:08;;;;;;;11.45;10.75;;;;;;;-0.44;100.00;103444.69;5006367;28;20029;-70
2022/12/19 11:17:36;;;;;;;12.18;11.38;;;;;;;0.02;100.00;103443.69;5005089;28;20507;-69
2022/12/19 11:20:19;;;;;;;13.02;12.13;;;;;;;-0.96;100.00;103437.88;5004595;28;20056;-69
2022/12/19 11:22:58;;;;;;;12.90;12.00;;;;;;;-1.08;100.00;103438.13;5003358;28;20424;-70
2022/12/19 11:25:39;;;;;;;12.02;11.23;;;;;;;-0.83;100.00;103443.72;5005254;28;20091;-69
2022/12/19 11:28:20;;;;;;;11.15;10.45;;;;;;;-0.65;100.00;103427.75;5005043;28;20034;-70